createdAt,value
2018-03-09T00:02:11.343Z,1.53
2018-03-09T00:04:39.939Z,1.80
2018-03-09T00:07:08.258Z,1.37
2018-03-09T00:09:36.530Z,1.37
2018-03-09T00:12:05.202Z,1.40
2018-03-09T00:14:33.971Z,1.40
2018-03-09T00:17:02.238Z,1.23
2018-03-09T00:19:30.519Z,1.10
2018-03-09T00:21:58.822Z,1.33
2018-03-09T00:24:27.494Z,1.00
2018-03-09T00:26:55.767Z,1.30
2018-03-09T00:29:24.047Z,1.23
2018-03-09T00:31:52.354Z,1.10
2018-03-09T00:34:20.634Z,1.00
2018-03-09T00:36:48.955Z,1.10
2018-03-09T00:39:17.227Z,1.20
2018-03-09T00:41:45.518Z,1.10
2018-03-09T00:44:13.815Z,1.10
2018-03-09T00:46:42.092Z,1.10
2018-03-09T00:49:10.752Z,1.17
2018-03-09T00:51:39.047Z,0.93
2018-03-09T00:54:08.155Z,1.10
2018-03-09T00:56:36.544Z,1.23
2018-03-09T00:59:05.084Z,1.00
2018-03-09T01:01:33.356Z,1.03
2018-03-09T01:04:01.633Z,1.10
2018-03-09T01:06:30.224Z,1.00
2018-03-09T01:08:58.507Z,0.97
2018-03-09T01:11:27.184Z,1.00
2018-03-09T01:13:55.526Z,1.13
2018-03-09T01:16:23.795Z,1.20
2018-03-09T01:18:52.062Z,1.00
2018-03-09T01:21:20.699Z,1.30
2018-03-09T01:23:49.276Z,1.20
2018-03-09T01:26:17.551Z,1.10
2018-03-09T01:28:45.851Z,1.20
2018-03-09T01:31:14.146Z,1.37
2018-03-09T01:33:42.994Z,1.00
2018-03-09T01:36:11.282Z,1.03
2018-03-09T01:38:39.962Z,1.07
2018-03-09T01:41:08.234Z,1.13
2018-03-09T01:43:36.531Z,1.40
2018-03-09T01:46:05.284Z,0.93
2018-03-09T01:48:33.542Z,1.30
2018-03-09T01:51:01.946Z,1.33
2018-03-09T01:53:30.315Z,1.10
2018-03-09T01:55:58.590Z,1.30
2018-03-09T01:58:26.891Z,1.40
2018-03-09T02:00:55.245Z,1.23
2018-03-09T02:03:23.508Z,1.37
2018-03-09T02:05:52.122Z,1.57
2018-03-09T02:08:20.427Z,1.20
2018-03-09T02:10:48.695Z,1.00
2018-03-09T02:13:17.260Z,1.30
2018-03-09T02:15:45.535Z,1.40
2018-03-09T02:18:13.798Z,1.20
2018-03-09T02:20:42.113Z,1.40
2018-03-09T02:23:11.082Z,1.30
2018-03-09T02:25:39.344Z,1.10
2018-03-09T02:28:07.662Z,1.13
2018-03-09T02:30:36.330Z,1.50
2018-03-09T02:33:04.595Z,1.33
2018-03-09T02:35:32.892Z,1.30
2018-03-09T02:38:01.867Z,1.50
2018-03-09T02:40:30.141Z,1.40
2018-03-09T02:42:58.442Z,1.20
2018-03-09T02:45:27.109Z,1.33
2018-03-09T02:47:55.381Z,1.33
2018-03-09T02:50:24.094Z,1.23
2018-03-09T02:52:52.765Z,1.20
2018-03-09T02:55:21.460Z,1.50
2018-03-09T02:57:50.179Z,1.20
2018-03-09T03:00:18.456Z,1.40
2018-03-09T03:02:46.730Z,1.53
2018-03-09T03:05:15.363Z,1.50
2018-03-09T03:07:43.707Z,1.37
2018-03-09T03:10:11.987Z,1.10
2018-03-09T03:12:40.277Z,1.30
2018-03-09T03:15:08.555Z,1.10
2018-03-09T03:17:36.815Z,1.30
2018-03-09T03:20:05.340Z,1.10
2018-03-09T03:22:34.310Z,1.20
2018-03-09T03:25:02.584Z,1.30
2018-03-09T03:27:30.915Z,1.20
2018-03-09T03:29:59.192Z,1.63
2018-03-09T03:32:27.464Z,1.40
2018-03-09T03:34:55.790Z,1.30
2018-03-09T03:37:24.081Z,1.40
2018-03-09T03:39:52.430Z,1.60
2018-03-09T03:42:20.723Z,1.30
2018-03-09T03:44:48.989Z,1.53
2018-03-09T03:47:17.267Z,1.30
2018-03-09T03:49:45.578Z,1.37
2018-03-09T03:52:14.239Z,1.43
2018-03-09T03:54:42.818Z,1.47
2018-03-09T03:57:11.163Z,1.53
2018-03-09T03:59:39.434Z,1.40
2018-03-09T04:02:07.707Z,1.40
2018-03-09T04:04:36.244Z,1.30
2018-03-09T04:07:04.747Z,1.67
2018-03-09T04:09:33.424Z,1.37
2018-03-09T04:12:02.490Z,1.33
2018-03-09T04:14:30.767Z,1.47
2018-03-09T04:16:59.058Z,1.50
2018-03-09T04:19:27.628Z,1.23
2018-03-09T04:21:55.935Z,1.43
2018-03-09T04:24:24.898Z,1.70
2018-03-09T04:26:53.203Z,1.80
2018-03-09T04:29:21.868Z,1.77
2018-03-09T04:31:50.135Z,1.50
2018-03-09T04:34:18.459Z,1.50
2018-03-09T04:36:46.760Z,1.60
2018-03-09T04:39:15.043Z,1.50
2018-03-09T04:41:43.454Z,1.70
2018-03-09T04:44:11.739Z,1.57
2018-03-09T04:46:40.007Z,1.60
2018-03-09T04:49:08.308Z,1.50
2018-03-09T04:51:36.977Z,1.80
2018-03-09T04:54:05.544Z,1.60
2018-03-09T04:56:33.857Z,1.97
2018-03-09T04:59:02.528Z,1.93
2018-03-09T05:01:31.206Z,2.00
2018-03-09T05:03:59.771Z,1.77
2018-03-09T05:06:28.055Z,1.80
2018-03-09T05:08:56.732Z,1.80
2018-03-09T05:11:25.022Z,1.90
2018-03-09T05:13:53.309Z,1.90
2018-03-09T05:16:21.998Z,1.67
2018-03-09T05:18:50.702Z,1.50
2018-03-09T05:21:18.978Z,1.70
2018-03-09T05:23:47.516Z,1.60
2018-03-09T05:26:15.795Z,1.77
2018-03-09T05:28:44.228Z,1.60
2018-03-09T05:31:12.533Z,1.53
2018-03-09T05:33:40.963Z,1.57
2018-03-09T05:36:09.240Z,1.70
2018-03-09T05:38:37.934Z,1.50
2018-03-09T05:41:06.228Z,1.60
2018-03-09T05:43:34.547Z,1.70
2018-03-09T05:46:02.914Z,1.70
2018-03-09T05:48:31.218Z,1.50
2018-03-09T05:50:59.626Z,2.43
2018-03-09T05:53:27.929Z,2.13
2018-03-09T05:55:56.539Z,2.10
2018-03-09T05:58:24.805Z,1.77
2018-03-09T06:00:53.142Z,1.93
2018-03-09T06:03:21.423Z,2.20
2018-03-09T06:05:49.729Z,2.17
2018-03-09T06:08:18.008Z,2.40
2018-03-09T06:10:46.344Z,2.43
2018-03-09T06:13:15.068Z,2.47
2018-03-09T06:15:44.596Z,2.10
2018-03-09T06:18:12.873Z,2.40
2018-03-09T06:20:41.153Z,2.53
2018-03-09T06:23:09.436Z,2.30
2018-03-09T06:25:37.715Z,2.47
2018-03-09T06:28:06.461Z,2.10
2018-03-09T06:30:34.847Z,2.67
2018-03-09T06:33:03.446Z,2.43
2018-03-09T06:35:31.758Z,2.40
2018-03-09T06:38:00.081Z,2.43
2018-03-09T06:40:28.366Z,2.40
2018-03-09T06:42:56.692Z,2.40
2018-03-09T06:45:25.038Z,2.27
2018-03-09T06:47:53.308Z,1.97
2018-03-09T06:50:21.627Z,2.23
2018-03-09T06:52:49.894Z,2.23
2018-03-09T06:55:18.171Z,2.30
2018-03-09T06:57:46.847Z,2.40
2018-03-09T07:00:15.546Z,2.70
2018-03-09T07:02:43.846Z,2.40
2018-03-09T07:05:12.126Z,2.20
2018-03-09T07:07:40.394Z,2.10
2018-03-09T07:10:09.014Z,2.30
2018-03-09T07:12:37.291Z,1.97
2018-03-09T07:15:06.041Z,2.50
2018-03-09T07:17:34.444Z,2.30
2018-03-09T07:20:02.725Z,2.10
2018-03-09T07:22:31.005Z,2.20
2018-03-09T07:24:59.364Z,2.20
2018-03-09T07:27:27.735Z,2.13
2018-03-09T07:29:56.099Z,2.50
2018-03-09T07:32:24.423Z,2.60
2018-03-09T07:34:52.784Z,2.40
2018-03-09T07:37:21.050Z,2.60
2018-03-09T07:39:49.351Z,2.50
2018-03-09T07:42:17.631Z,2.33
2018-03-09T07:44:45.899Z,2.50
2018-03-09T07:47:14.636Z,2.30
2018-03-09T07:49:42.911Z,2.80
2018-03-09T07:52:11.201Z,2.30
2018-03-09T07:54:39.517Z,2.57
2018-03-09T07:57:07.791Z,2.60
2018-03-09T07:59:36.503Z,2.70
2018-03-09T08:02:04.809Z,2.50
2018-03-09T08:04:33.109Z,2.60
2018-03-09T08:07:01.381Z,2.80
2018-03-09T08:09:29.697Z,2.60
2018-03-09T08:11:57.970Z,2.57
2018-03-09T08:14:26.304Z,2.30
2018-03-09T08:16:54.931Z,2.53
2018-03-09T08:19:23.194Z,2.43
2018-03-09T08:21:51.790Z,2.47
2018-03-09T08:24:20.108Z,2.20
2018-03-09T08:26:48.526Z,2.07
2018-03-09T08:29:16.711Z,2.50
2018-03-09T08:31:45.056Z,2.63
2018-03-09T08:34:13.615Z,2.53
2018-03-09T08:36:41.939Z,2.50
2018-03-09T08:39:10.252Z,2.40
2018-03-09T08:41:38.930Z,2.60
2018-03-09T08:44:07.790Z,2.87
2018-03-09T08:46:36.183Z,2.40
2018-03-09T08:49:04.453Z,2.60
2018-03-09T08:51:32.719Z,2.30
2018-03-09T08:54:01.030Z,2.20
2018-03-09T08:56:29.304Z,2.70
2018-03-09T08:58:57.574Z,2.07
2018-03-09T09:01:25.880Z,2.37
2018-03-09T09:03:54.632Z,2.30
2018-03-09T09:06:22.917Z,2.33
2018-03-09T09:08:51.600Z,2.37
2018-03-09T09:11:19.887Z,2.10
2018-03-09T09:13:48.587Z,2.20
2018-03-09T09:16:17.444Z,2.17
2018-03-09T09:18:45.756Z,2.33
2018-03-09T09:21:14.537Z,2.23
2018-03-09T09:23:43.200Z,1.87
2018-03-09T09:26:11.480Z,1.87
2018-03-09T09:28:40.169Z,2.00
2018-03-09T09:31:08.451Z,2.90
2018-03-09T09:33:36.895Z,2.60
2018-03-09T09:36:05.223Z,2.83
2018-03-09T09:38:33.522Z,2.20
2018-03-09T09:41:01.869Z,2.00
2018-03-09T09:43:30.536Z,2.33
2018-03-09T09:45:59.228Z,2.30
2018-03-09T09:48:28.611Z,2.10
2018-03-09T09:50:56.888Z,1.80
2018-03-09T09:53:25.255Z,1.80
2018-03-09T09:55:54.974Z,1.73
2018-03-09T09:58:24.075Z,2.47
2018-03-09T10:00:52.884Z,2.20
2018-03-09T10:03:21.548Z,1.80
2018-03-09T10:05:49.911Z,2.37
2018-03-09T10:08:18.327Z,2.00
2018-03-09T10:10:46.999Z,1.90
2018-03-09T10:13:15.331Z,2.57
2018-03-09T10:15:43.650Z,2.00
2018-03-09T10:18:11.926Z,1.80
2018-03-09T10:20:40.228Z,2.00
2018-03-09T10:23:08.911Z,3.00
2018-03-09T10:25:37.584Z,13.87
2018-03-09T10:28:05.904Z,14.93
2018-03-09T10:30:34.187Z,12.23
2018-03-09T10:33:02.471Z,13.50
2018-03-09T10:35:30.844Z,13.30
2018-03-09T10:37:59.160Z,11.50
2018-03-09T10:40:27.554Z,11.80
2018-03-09T10:42:55.875Z,11.23
2018-03-09T10:45:24.208Z,10.87
2018-03-09T10:47:53.292Z,10.23
2018-03-09T10:50:22.055Z,10.03
2018-03-09T10:52:50.658Z,10.00
2018-03-09T10:55:18.934Z,10.40
2018-03-09T10:57:47.513Z,9.10
2018-03-09T11:00:19.664Z,8.87
2018-03-09T11:02:47.940Z,8.97
2018-03-09T11:05:16.554Z,8.60
2018-03-09T11:07:45.197Z,7.73
2018-03-09T11:10:14.115Z,7.93
2018-03-09T11:12:42.738Z,7.80
2018-03-09T11:15:11.540Z,8.70
2018-03-09T11:17:39.848Z,7.63
2018-03-09T11:20:08.123Z,7.60
2018-03-09T11:22:36.724Z,7.80
2018-03-09T11:25:05.348Z,7.43
2018-03-09T11:27:33.670Z,6.97
2018-03-09T11:30:02.652Z,6.23
2018-03-09T11:32:30.972Z,6.10
2018-03-09T11:34:59.948Z,7.40
2018-03-09T11:37:28.253Z,5.90
2018-03-09T11:39:56.980Z,6.80
2018-03-09T11:42:25.496Z,5.20
2018-03-09T11:44:53.775Z,6.17
2018-03-09T11:47:22.133Z,5.60
2018-03-09T11:49:50.632Z,6.10
2018-03-09T11:52:19.813Z,6.87
2018-03-09T11:54:48.376Z,5.70
2018-03-09T11:57:16.995Z,5.90
2018-03-09T11:59:45.567Z,5.60
2018-03-09T12:02:13.961Z,5.77
2018-03-09T12:04:42.243Z,4.80
2018-03-09T12:07:10.545Z,5.90
2018-03-09T12:09:39.215Z,4.93
2018-03-09T12:12:07.895Z,5.70
2018-03-09T12:14:36.599Z,5.53
2018-03-09T12:17:04.976Z,5.17
2018-03-09T12:19:33.283Z,5.70
2018-03-09T12:22:01.583Z,6.20
2018-03-09T12:24:29.897Z,5.33
2018-03-09T12:26:58.749Z,4.87
2018-03-09T12:29:27.091Z,5.27
2018-03-09T12:31:55.397Z,5.10
2018-03-09T12:34:23.706Z,4.97
2018-03-09T12:36:52.057Z,5.17
2018-03-09T12:39:20.964Z,4.80
2018-03-09T12:41:49.496Z,5.20
2018-03-09T12:44:17.916Z,5.40
2018-03-09T12:46:46.239Z,4.60
2018-03-09T12:49:14.966Z,4.70
2018-03-09T12:51:43.247Z,6.43
2018-03-09T12:54:12.003Z,5.50
2018-03-09T12:56:40.317Z,4.90
2018-03-09T12:59:08.615Z,4.93
2018-03-09T13:01:37.301Z,4.90
2018-03-09T13:04:06.735Z,4.80
2018-03-09T13:06:35.013Z,5.03
2018-03-09T13:09:03.302Z,5.20
2018-03-09T13:11:31.705Z,4.60
2018-03-09T13:14:06.147Z,5.00
2018-03-09T13:16:34.499Z,4.50
2018-03-09T13:19:02.788Z,5.27
2018-03-09T13:21:31.117Z,4.50
2018-03-09T13:23:59.487Z,4.40
2018-03-09T13:26:28.041Z,4.80
2018-03-09T13:28:56.314Z,4.10
2018-03-09T13:31:24.653Z,4.80
2018-03-09T13:33:53.055Z,4.10
2018-03-09T13:36:21.325Z,4.63
2018-03-09T13:38:49.635Z,5.70
2018-03-09T13:41:18.316Z,4.33
2018-03-09T13:43:46.921Z,4.83
2018-03-09T13:46:15.222Z,4.10
2018-03-09T13:48:43.528Z,4.40
2018-03-09T13:51:11.792Z,5.03
2018-03-09T13:53:40.103Z,4.20
2018-03-09T13:56:08.384Z,3.80
2018-03-09T13:58:37.061Z,4.00
2018-03-09T14:01:05.366Z,4.70
2018-03-09T14:03:34.040Z,4.27
2018-03-09T14:06:03.011Z,3.67
2018-03-09T14:08:31.388Z,3.90
2018-03-09T14:10:59.702Z,4.83
2018-03-09T14:13:28.396Z,3.50
2018-03-09T14:15:56.673Z,4.47
2018-03-09T14:18:24.946Z,4.40
2018-03-09T14:20:54.629Z,3.80
2018-03-09T14:23:23.415Z,4.23
2018-03-09T14:25:51.765Z,4.73
2018-03-09T14:28:20.254Z,4.67
2018-03-09T14:30:48.539Z,3.50
2018-03-09T14:33:16.900Z,3.27
2018-03-09T14:35:45.279Z,3.30
2018-03-09T14:38:13.562Z,4.30
2018-03-09T14:40:41.933Z,3.43
2018-03-09T14:43:10.539Z,3.00
2018-03-09T14:45:38.816Z,2.90
2018-03-09T14:48:07.171Z,4.20
2018-03-09T14:50:35.517Z,4.17
2018-03-09T14:53:03.841Z,4.50
2018-03-09T14:55:32.123Z,3.10
2018-03-09T14:58:00.455Z,3.20
2018-03-09T15:00:28.723Z,3.50
2018-03-09T15:02:57.008Z,3.13
2018-03-09T15:05:25.311Z,3.40
2018-03-09T15:07:53.925Z,3.90
2018-03-09T15:10:23.294Z,3.27
2018-03-09T15:12:52.403Z,3.27
2018-03-09T15:15:20.671Z,3.30
2018-03-09T15:17:49.043Z,3.20
2018-03-09T15:20:17.598Z,3.33
2018-03-09T15:22:45.884Z,3.20
2018-03-09T15:25:14.154Z,3.10
2018-03-09T15:27:42.432Z,4.07
2018-03-09T15:30:10.764Z,3.13
2018-03-09T15:32:39.327Z,3.80
2018-03-09T15:35:09.389Z,4.50
2018-03-09T15:37:40.317Z,4.47
2018-03-09T15:40:09.012Z,3.17
2018-03-09T15:42:37.303Z,2.90
2018-03-09T15:45:05.748Z,3.07
2018-03-09T15:47:34.044Z,5.50
2018-03-09T15:50:02.375Z,3.50
2018-03-09T15:52:30.963Z,4.63
2018-03-09T15:54:59.587Z,3.83
2018-03-09T15:57:28.259Z,3.83
2018-03-09T15:59:56.928Z,3.97
2018-03-09T16:02:25.256Z,5.00
2018-03-09T16:04:53.883Z,3.17
2018-03-09T16:07:22.248Z,3.17
2018-03-09T16:09:50.843Z,3.70
2018-03-09T16:12:19.536Z,4.17
2018-03-09T16:14:47.804Z,3.50
2018-03-09T16:17:16.084Z,4.60
2018-03-09T16:19:44.663Z,3.83
2018-03-09T16:22:12.947Z,4.37
2018-03-09T16:24:41.235Z,4.70
2018-03-09T16:27:09.936Z,2.80
2018-03-09T16:29:38.426Z,5.67
2018-03-09T16:32:06.715Z,3.83
2018-03-09T16:34:35.070Z,4.30
2018-03-09T16:37:03.810Z,15.53
2018-03-09T16:39:32.186Z,4.90
2018-03-09T16:42:00.450Z,4.40
2018-03-09T16:44:29.494Z,4.23
2018-03-09T16:46:57.792Z,4.53
2018-03-09T16:49:26.079Z,6.10
2018-03-09T16:51:54.368Z,5.03
2018-03-09T16:54:22.675Z,4.33
2018-03-09T16:56:51.042Z,3.10
2018-03-09T16:59:19.728Z,3.73
2018-03-09T17:01:48.113Z,3.20
2018-03-09T17:04:16.450Z,5.00
2018-03-09T17:06:44.723Z,5.43
2018-03-09T17:09:13.119Z,2.83
2018-03-09T17:11:41.410Z,3.30
2018-03-09T17:14:09.793Z,3.50
2018-03-09T17:16:38.086Z,6.00
2018-03-09T17:19:06.472Z,4.10
2018-03-09T17:21:34.833Z,5.27
2018-03-09T17:24:03.184Z,5.63
2018-03-09T17:26:31.584Z,4.10
2018-03-09T17:28:59.864Z,4.57
2018-03-09T17:31:28.460Z,5.30
2018-03-09T17:33:56.725Z,4.87
2018-03-09T17:36:25.002Z,6.10
2018-03-09T17:38:53.412Z,4.30
2018-03-09T17:41:22.079Z,5.07
2018-03-09T17:43:50.356Z,5.20
2018-03-09T17:46:19.089Z,5.50
2018-03-09T17:48:47.419Z,6.30
2018-03-09T17:51:15.720Z,6.13
2018-03-09T17:53:44.402Z,7.93
2018-03-09T17:56:13.150Z,6.10
2018-03-09T17:58:41.428Z,5.27
2018-03-09T18:01:09.726Z,6.50
2018-03-09T18:03:38.055Z,5.50
2018-03-09T18:06:06.355Z,5.30
2018-03-09T18:08:34.652Z,7.60
2018-03-09T18:11:02.959Z,5.33
2018-03-09T18:13:31.648Z,6.53
2018-03-09T18:15:59.979Z,5.10
2018-03-09T18:18:28.352Z,5.27
2018-03-09T18:20:56.674Z,5.70
2018-03-09T18:23:27.740Z,6.27
2018-03-09T18:25:57.683Z,5.30
2018-03-09T18:28:26.016Z,6.30
2018-03-09T18:30:54.290Z,7.67
2018-03-09T18:33:22.562Z,5.50
2018-03-09T18:35:51.316Z,6.27
2018-03-09T18:38:19.605Z,6.80
2018-03-09T18:40:47.936Z,6.77
2018-03-09T18:43:16.247Z,7.57
2018-03-09T18:45:44.523Z,6.40
2018-03-09T18:48:13.227Z,5.60
2018-03-09T18:50:41.936Z,5.80
2018-03-09T18:53:10.253Z,7.00
2018-03-09T18:55:39.827Z,7.20
2018-03-09T18:58:08.173Z,6.03
2018-03-09T19:00:36.864Z,6.50
2018-03-09T19:03:05.611Z,6.23
2018-03-09T19:05:34.810Z,7.53
2018-03-09T19:08:03.087Z,8.17
2018-03-09T19:10:31.370Z,7.03
2018-03-09T19:12:59.721Z,6.90
2018-03-09T19:15:28.198Z,7.30
2018-03-09T19:17:57.008Z,6.07
2018-03-09T19:20:25.345Z,7.80
2018-03-09T19:22:53.620Z,7.13
2018-03-09T19:25:22.381Z,7.27
2018-03-09T19:27:51.335Z,6.73
2018-03-09T19:30:20.014Z,7.00
2018-03-09T19:32:48.411Z,6.87
2018-03-09T19:35:16.714Z,6.53
2018-03-09T19:37:45.029Z,8.53
2018-03-09T19:40:13.765Z,9.10
2018-03-09T19:42:43.674Z,8.10
2018-03-09T19:45:12.168Z,9.23
2018-03-09T19:47:41.213Z,8.30
2018-03-09T19:50:09.650Z,9.37
2018-03-09T19:52:38.490Z,8.07
2018-03-09T19:55:06.824Z,8.40
2018-03-09T19:57:35.523Z,9.10
2018-03-09T20:00:03.841Z,8.40
2018-03-09T20:02:32.244Z,9.90
2018-03-09T20:05:00.539Z,7.70
2018-03-09T20:07:29.389Z,9.17
2018-03-09T20:09:58.170Z,7.90
2018-03-09T20:12:26.504Z,7.80
2018-03-09T20:14:55.448Z,9.80
2018-03-09T20:17:23.743Z,11.23
2018-03-09T20:19:52.059Z,9.20
2018-03-09T20:22:20.339Z,9.33
2018-03-09T20:24:48.643Z,8.07
2018-03-09T20:27:17.032Z,9.63
2018-03-09T20:29:45.359Z,8.10
2018-03-09T20:32:13.656Z,10.43
2018-03-09T20:34:41.977Z,10.00
2018-03-09T20:37:10.587Z,10.67
2018-03-09T20:39:39.284Z,9.07
2018-03-09T20:42:08.093Z,8.63
2018-03-09T20:44:36.407Z,11.87
2018-03-09T20:47:05.105Z,9.00
2018-03-09T20:49:33.727Z,11.00
2018-03-09T20:52:02.093Z,11.97
2018-03-09T20:54:30.798Z,15.10
2018-03-09T20:56:59.153Z,8.77
2018-03-09T20:59:28.272Z,9.53
2018-03-09T21:01:57.667Z,10.83
2018-03-09T21:04:26.535Z,9.03
2018-03-09T21:06:56.007Z,8.77
2018-03-09T21:09:24.448Z,10.70
2018-03-09T21:11:52.724Z,9.63
2018-03-09T21:14:21.009Z,10.17
2018-03-09T21:16:49.329Z,10.00
2018-03-09T21:19:17.792Z,10.43
2018-03-09T21:21:46.139Z,10.50
2018-03-09T21:24:14.446Z,12.60
2018-03-09T21:26:42.802Z,10.20
2018-03-09T21:29:11.087Z,10.30
2018-03-09T21:31:39.379Z,11.07
2018-03-09T21:34:08.492Z,10.87
2018-03-09T21:36:36.778Z,9.00
2018-03-09T21:39:05.101Z,11.67
2018-03-09T21:41:33.375Z,10.80
2018-03-09T21:44:01.656Z,10.70
2018-03-09T21:46:30.086Z,9.93
2018-03-09T21:48:58.368Z,12.30
2018-03-09T21:51:27.087Z,13.10
2018-03-09T21:53:55.433Z,13.30
2018-03-09T21:56:24.139Z,10.80
2018-03-09T21:58:52.483Z,13.77
2018-03-09T22:01:20.802Z,10.90
2018-03-09T22:03:49.194Z,11.33
2018-03-09T22:06:17.950Z,10.57
2018-03-09T22:08:46.694Z,12.23
2018-03-09T22:11:15.440Z,9.97
2018-03-09T22:13:43.767Z,10.03
2018-03-09T22:16:12.088Z,11.47
2018-03-09T22:18:41.108Z,9.97
2018-03-09T22:21:09.568Z,10.47
2018-03-09T22:23:37.906Z,11.33
2018-03-09T22:26:06.592Z,11.80
2018-03-09T22:28:34.907Z,11.00
2018-03-09T22:31:03.318Z,10.20
2018-03-09T22:33:31.636Z,10.90
2018-03-09T22:36:00.335Z,11.37
2018-03-09T22:38:29.305Z,9.97
2018-03-09T22:40:57.596Z,11.03
2018-03-09T22:43:27.079Z,9.77
2018-03-09T22:45:55.367Z,11.67
2018-03-09T22:48:24.183Z,10.30
2018-03-09T22:50:52.490Z,9.50
2018-03-09T22:53:21.108Z,9.50
2018-03-09T22:55:49.393Z,9.53
2018-03-09T22:58:17.699Z,7.97
2018-03-09T23:00:46.231Z,8.40
2018-03-09T23:03:14.489Z,8.30
2018-03-09T23:05:42.791Z,7.83
2018-03-09T23:08:11.080Z,7.43
2018-03-09T23:10:39.364Z,6.73
2018-03-09T23:13:07.688Z,7.27
2018-03-09T23:15:36.037Z,6.90
2018-03-09T23:18:04.711Z,6.80
2018-03-09T23:20:33.391Z,6.70
2018-03-09T23:23:02.119Z,6.30
2018-03-09T23:25:30.388Z,6.83
2018-03-09T23:27:58.683Z,6.33
2018-03-09T23:30:26.985Z,5.93
2018-03-09T23:32:55.367Z,6.27
2018-03-09T23:35:23.673Z,5.40
2018-03-09T23:37:52.342Z,6.00
2018-03-09T23:40:20.912Z,5.70
2018-03-09T23:42:49.203Z,5.37
2018-03-09T23:45:17.522Z,5.67
2018-03-09T23:47:45.790Z,5.53
2018-03-09T23:50:14.418Z,6.17
2018-03-09T23:52:42.687Z,5.30
2018-03-09T23:55:10.958Z,5.50
2018-03-09T23:57:39.251Z,5.27
